Time;durP1;ratioP1;P1;durP2;ratioP2;P2;SDS_P1;SDS_P2;PMS_P1;PMS_P2;Temp;Humidity;BMP_temperature;BMP_pressure;BME280_temperature;BME280_humidity;BME280_pressure;Samples;Min_cycle;Max_cycle;Signal;HPM_P1;HPM_P2
2022/05/30 00:02:07;;;;;;;;;;;;;;;;;;5093223;28;19990;-52
2022/05/30 00:04:34;;;;;;;;;;;;;;;;;;5092996;28;19908;-51
2022/05/30 00:07:00;;;;;;;;;;;;;;;;;;5092746;28;19916;-47
2022/05/30 00:09:27;;;;;;;;;;;;;;;;;;5093291;28;19969;-50
2022/05/30 00:11:53;;;;;;;;;;;;;;;;;;5093673;28;19916;-42
2022/05/30 00:14:20;;;;;;;;;;;;;;;;;;5092917;28;19908;-48
2022/05/30 00:16:46;;;;;;;;;;;;;;;;;;5092993;28;19908;-49
2022/05/30 00:19:12;;;;;;;;;;;;;;;;;;5088645;28;19911;-47
2022/05/30 00:21:39;;;;;;;;;;;;;;;;;;5091929;28;19908;-42
2022/05/30 00:24:05;;;;;;;;;;;;;;;;;;5090382;28;19962;-45
2022/05/30 00:26:32;;;;;;;;;;;;;;;;;;5090076;28;19908;-51
2022/05/30 00:28:58;;;;;;;;;;;;;;;;;;5091138;28;19912;-49
2022/05/30 00:31:25;;;;;;;;;;;;;;;;;;5092874;28;20357;-56
2022/05/30 00:33:51;;;;;;;;;;;;;;;;;;5092543;28;19909;-53
2022/05/30 00:36:18;;;;;;;;;;;;;;;;;;5092490;28;19905;-46
2022/05/30 00:38:44;;;;;;;;;;;;;;;;;;5091300;28;20370;-46
2022/05/30 00:41:11;;;;;;;;;;;;;;;;;;5092029;28;19904;-54
2022/05/30 00:43:37;;;;;;;;;;;;;;;;;;5092914;28;19916;-58
2022/05/30 00:46:06;;;;;;;;;;;;;;;;;;5092068;28;20259;-57
2022/05/30 00:48:33;;;;;;;;;;;;;;;;;;5091747;28;20319;-54
2022/05/30 00:50:59;;;;;;;;;;;;;;;;;;5092450;28;19939;-45
2022/05/30 00:53:26;;;;;;;;;;;;;;;;;;5092315;28;19913;-58
2022/05/30 00:55:52;;;;;;;;;;;;;;;;;;5091960;28;20215;-55
2022/05/30 00:58:19;;;;;;;;;;;;;;;;;;5091918;28;19912;-55
2022/05/30 01:00:45;;;;;;;;;;;;;;;;;;5092145;28;19908;-56
2022/05/30 01:08:40;;;;;;;;;;;;;;;;;;5092046;28;19949;-51
2022/05/30 01:11:07;;;;;;;;;;;;;;;;;;5092970;28;19908;-48
2022/05/30 01:13:33;;;;;;;;;;;;;;;;;;5092208;28;19993;-54
2022/05/30 01:16:00;;;;;;;;;;;;;;;;;;5092451;28;19916;-53
2022/05/30 01:18:26;;;;;;;;;;;;;;;;;;5092734;28;19979;-58
2022/05/30 01:20:53;;;;;;;;;;;;;;;;;;5092666;28;19924;-50
2022/05/30 01:23:21;;;;;;;;;;;;;;;;;;5092169;28;19908;-54
2022/05/30 01:25:48;;;;;;;;;;;;;;;;;;5092617;28;20339;-51
2022/05/30 01:28:14;;;;;;;;;;;;;;;;;;5092426;28;20317;-54
2022/05/30 01:30:41;;;;;;;;;;;;;;;;;;5091753;28;20270;-49
2022/05/30 01:33:07;;;;;;;;;;;;;;;;;;5092411;28;19920;-50
2022/05/30 01:35:34;;;;;;;;;;;;;;;;;;5092556;28;19999;-50
2022/05/30 01:38:00;;;;;;;;;;;;;;;;;;5092087;28;19974;-46
2022/05/30 01:40:27;;;;;;;;;;;;;;;;;;5091883;28;19951;-51
2022/05/30 01:42:53;;;;;;;;;;;;;;;;;;5092027;28;19930;-56
2022/05/30 01:45:19;;;;;;;;;;;;;;;;;;5094933;28;19909;-42
2022/05/30 01:47:46;;;;;;;;;;;;;;;;;;5096089;28;19942;-53
2022/05/30 01:50:12;;;;;;;;;;;;;;;;;;5095779;28;19908;-51
2022/05/30 01:52:39;;;;;;;;;;;;;;;;;;5095498;28;19916;-56
2022/05/30 01:55:05;;;;;;;;;;;;;;;;;;5095776;28;19915;-48
2022/05/30 01:57:32;;;;;;;;;;;;;;;;;;5095857;28;19953;-55
2022/05/30 01:59:58;;;;;;;;;;;;;;;;;;5096109;28;20334;-51
2022/05/30 02:02:25;;;;;;;;;;;;;;;;;;5096095;28;20372;-46
2022/05/30 02:04:53;;;;;;;;;;;;;;;;;;5095941;28;19908;-44
2022/05/30 02:07:19;;;;;;;;;;;;;;;;;;5095628;28;19931;-52
2022/05/30 02:09:46;;;;;;;;;;;;;;;;;;5095573;28;20014;-40
2022/05/30 02:12:12;;;;;;;;;;;;;;;;;;5095676;28;19922;-45
2022/05/30 02:14:40;;;;;;;;;;;;;;;;;;5095607;28;19915;-38
2022/05/30 02:17:07;;;;;;;;;;;;;;;;;;5077088;28;19915;-40
2022/05/30 02:19:33;;;;;;;;;;;;;;;;;;5095414;28;19908;-41
2022/05/30 02:22:00;;;;;;;;;;;;;;;;;;5095397;28;19970;-46
2022/05/30 02:24:27;;;;;;;;;;;;;;;;;;5094970;28;20228;-40
2022/05/30 02:26:53;;;;;;;;;;;;;;;;;;5095413;28;19931;-46
2022/05/30 02:29:20;;;;;;;;;;;;;;;;;;5095177;28;19914;-43
2022/05/30 02:31:46;;;;;;;;;;;;;;;;;;5094821;28;19920;-46
2022/05/30 02:36:57;;;;;;;;;;;;;;;;;;5095449;28;20003;-47
2022/05/30 02:39:23;;;;;;;;;;;;;;;;;;5094672;28;20382;-45
2022/05/30 02:41:50;;;;;;;;;;;;;;;;;;5094790;28;19908;-47
2022/05/30 02:44:19;;;;;;;;;;;;;;;;;;5095495;28;19920;-45
2022/05/30 02:46:46;;;;;;;;;;;;;;;;;;5094388;28;20299;-58
2022/05/30 02:49:13;;;;;;;;;;;;;;;;;;5076932;28;20043;-47
2022/05/30 02:51:39;;;;;;;;;;;;;;;;;;5095002;28;19923;-47
2022/05/30 02:54:06;;;;;;;;;;;;;;;;;;5095114;28;20317;-57
2022/05/30 02:56:32;;;;;;;;;;;;;;;;;;5094490;28;19931;-46
2022/05/30 02:58:59;;;;;;;;;;;;;;;;;;5094527;28;19961;-43
2022/05/30 03:01:26;;;;;;;;;;;;;;;;;;5094799;28;20006;-51
2022/05/30 03:03:52;;;;;;;;;;;;;;;;;;5095133;28;19908;-46
2022/05/30 03:06:19;;;;;;;;;;;;;;;;;;5094233;28;19943;-51
2022/05/30 03:08:45;;;;;;;;;;;;;;;;;;5094219;28;20255;-56
2022/05/30 03:11:12;;;;;;;;;;;;;;;;;;5094622;28;20260;-42
2022/05/30 03:13:38;;;;;;;;;;;;;;;;;;5094393;28;20350;-50
2022/05/30 03:16:05;;;;;;;;;;;;;;;;;;5094634;28;19908;-47
2022/05/30 03:18:31;;;;;;;;;;;;;;;;;;5094671;28;19912;-44
2022/05/30 03:20:57;;;;;;;;;;;;;;;;;;5078567;28;19913;-50
2022/05/30 03:23:24;;;;;;;;;;;;;;;;;;5087102;28;19912;-46
2022/05/30 03:25:50;;;;;;;;;;;;;;;;;;5088358;28;19912;-48
2022/05/30 03:28:17;;;;;;;;;;;;;;;;;;5085009;28;20263;-51
2022/05/30 03:30:44;;;;;;;;;;;;;;;;;;5087346;28;20002;-46
2022/05/30 03:33:10;;;;;;;;;;;;;;;;;;5084582;28;19990;-59
2022/05/30 03:35:37;;;;;;;;;;;;;;;;;;5084453;28;20045;-48
2022/05/30 03:38:03;;;;;;;;;;;;;;;;;;5085867;28;19917;-51
2022/05/30 03:40:30;;;;;;;;;;;;;;;;;;5089131;28;20032;-52
2022/05/30 03:42:56;;;;;;;;;;;;;;;;;;5080297;28;20278;-48
2022/05/30 03:45:23;;;;;;;;;;;;;;;;;;5066228;28;19961;-46
2022/05/30 03:47:49;;;;;;;;;;;;;;;;;;5071513;28;19962;-46
2022/05/30 03:50:16;;;;;;;;;;;;;;;;;;5087980;28;19919;-47
2022/05/30 03:52:42;;;;;;;;;;;;;;;;;;5059160;28;19916;-53
2022/05/30 03:55:11;;;;;;;;;;;;;;;;;;5089672;28;19923;-53
2022/05/30 03:57:38;;;;;;;;;;;;;;;;;;5065611;28;20366;-53
2022/05/30 04:00:04;;;;;;;;;;;;;;;;;;5086185;28;19909;-52
2022/05/30 04:02:31;;;;;;;;;;;;;;;;;;5082168;28;19944;-54
2022/05/30 04:04:57;;;;;;;;;;;;;;;;;;5082447;28;19913;-43
2022/05/30 04:07:24;;;;;;;;;;;;;;;;;;5079638;28;19920;-51
2022/05/30 04:09:50;;;;;;;;;;;;;;;;;;5072097;28;19935;-47
2022/05/30 04:12:16;;;;;;;;;;;;;;;;;;5073048;28;19946;-45
2022/05/30 04:14:43;;;;;;;;;;;;;;;;;;5072518;28;19915;-51
2022/05/30 04:17:09;;;;;;;;;;;;;;;;;;5072969;28;19905;-52
2022/05/30 04:19:36;;;;;;;;;;;;;;;;;;5072875;28;19909;-49
2022/05/30 04:22:02;;;;;;;;;;;;;;;;;;5073004;28;19936;-51
2022/05/30 04:24:29;;;;;;;;;;;;;;;;;;5072274;28;20274;-51
2022/05/30 04:26:55;;;;;;;;;;;;;;;;;;5072710;28;19978;-46
2022/05/30 04:29:22;;;;;;;;;;;;;;;;;;5071900;28;19911;-47
2022/05/30 04:31:48;;;;;;;;;;;;;;;;;;5072866;28;19916;-47
2022/05/30 04:34:14;;;;;;;;;;;;;;;;;;5072946;28;19909;-48
2022/05/30 04:36:41;;;;;;;;;;;;;;;;;;5072983;28;20408;-52
2022/05/30 04:39:07;;;;;;;;;;;;;;;;;;5072841;28;19921;-51
2022/05/30 04:41:34;;;;;;;;;;;;;;;;;;5072160;28;20231;-46
2022/05/30 04:44:01;;;;;;;;;;;;;;;;;;5073031;28;19908;-54
2022/05/30 04:46:27;;;;;;;;;;;;;;;;;;5072697;28;20271;-46
2022/05/30 04:48:54;;;;;;;;;;;;;;;;;;5054023;28;19996;-47
2022/05/30 04:51:20;;;;;;;;;;;;;;;;;;5072398;28;20332;-55
2022/05/30 04:53:47;;;;;;;;;;;;;;;;;;5072205;28;20282;-55
2022/05/30 04:56:13;;;;;;;;;;;;;;;;;;5072804;28;20333;-46
2022/05/30 04:58:40;;;;;;;;;;;;;;;;;;5072184;28;19908;-56
2022/05/30 05:01:06;;;;;;;;;;;;;;;;;;5072335;28;19909;-46
2022/05/30 05:03:33;;;;;;;;;;;;;;;;;;5072349;28;19908;-57
2022/05/30 05:05:59;;;;;;;;;;;;;;;;;;5072289;28;19908;-52
2022/05/30 05:08:26;;;;;;;;;;;;;;;;;;5087320;28;19920;-51
2022/05/30 05:10:52;;;;;;;;;;;;;;;;;;5091984;28;19948;-47
2022/05/30 05:13:18;;;;;;;;;;;;;;;;;;5092964;28;19969;-45
2022/05/30 05:15:45;;;;;;;;;;;;;;;;;;5092209;28;19919;-49
2022/05/30 05:18:11;;;;;;;;;;;;;;;;;;5092354;28;19916;-44
2022/05/30 05:20:38;;;;;;;;;;;;;;;;;;5095159;28;19997;-51
2022/05/30 05:23:04;;;;;;;;;;;;;;;;;;5096148;28;19908;-56
2022/05/30 05:25:31;;;;;;;;;;;;;;;;;;5085972;28;19920;-47
2022/05/30 05:27:57;;;;;;;;;;;;;;;;;;5083029;28;19912;-48
2022/05/30 05:30:24;;;;;;;;;;;;;;;;;;5089913;28;19909;-50
2022/05/30 05:32:51;;;;;;;;;;;;;;;;;;5088596;28;19924;-51
2022/05/30 05:35:17;;;;;;;;;;;;;;;;;;5087048;28;19958;-52
2022/05/30 05:37:43;;;;;;;;;;;;;;;;;;5082247;28;20019;-50
2022/05/30 05:40:10;;;;;;;;;;;;;;;;;;5092276;28;19977;-45
2022/05/30 05:42:36;;;;;;;;;;;;;;;;;;5087009;28;20588;-46
2022/05/30 05:45:03;;;;;;;;;;;;;;;;;;5089161;28;20354;-46
2022/05/30 05:47:29;;;;;;;;;;;;;;;;;;5083316;28;20370;-47
2022/05/30 05:49:56;;;;;;;;;;;;;;;;;;5084697;28;19916;-46
2022/05/30 05:52:25;;;;;;;;;;;;;;;;;;5090211;28;20051;-52
2022/05/30 05:54:51;;;;;;;;;;;;;;;;;;5090251;28;19959;-55
2022/05/30 05:57:18;;;;;;;;;;;;;;;;;;5083664;28;19955;-53
2022/05/30 05:59:44;;;;;;;;;;;;;;;;;;5087012;28;20016;-50
2022/05/30 06:02:11;;;;;;;;;;;;;;;;;;5090701;28;19908;-50
2022/05/30 06:04:37;;;;;;;;;;;;;;;;;;5085201;28;19919;-49
2022/05/30 06:07:04;;;;;;;;;;;;;;;;;;5085172;28;19923;-43
2022/05/30 06:09:30;;;;;;;;;;;;;;;;;;5091028;28;19920;-42
2022/05/30 06:11:57;;;;;;;;;;;;;;;;;;5088389;28;19974;-40
2022/05/30 06:14:23;;;;;;;;;;;;;;;;;;5090274;28;19927;-50
2022/05/30 06:16:50;;;;;;;;;;;;;;;;;;5084190;28;19923;-45
2022/05/30 06:19:16;;;;;;;;;;;;;;;;;;5089843;28;19954;-53
2022/05/30 06:21:43;;;;;;;;;;;;;;;;;;5088715;28;19995;-48
2022/05/30 06:24:10;;;;;;;;;;;;;;;;;;5088687;28;19909;-47
2022/05/30 06:26:36;;;;;;;;;;;;;;;;;;5081546;28;19943;-46
2022/05/30 06:29:03;;;;;;;;;;;;;;;;;;5089114;28;19912;-45
2022/05/30 06:31:29;;;;;;;;;;;;;;;;;;5083859;28;20004;-47
2022/05/30 06:33:56;;;;;;;;;;;;;;;;;;5090501;28;19916;-54
2022/05/30 06:36:25;;;;;;;;;;;;;;;;;;5085314;28;19941;-43
2022/05/30 06:38:52;;;;;;;;;;;;;;;;;;5083476;28;19977;-45
2022/05/30 06:41:19;;;;;;;;;;;;;;;;;;5084465;28;19991;-48
2022/05/30 06:43:45;;;;;;;;;;;;;;;;;;5090460;28;19908;-54
2022/05/30 06:46:11;;;;;;;;;;;;;;;;;;5079436;28;19932;-39
2022/05/30 06:48:38;;;;;;;;;;;;;;;;;;5080199;28;19919;-56
2022/05/30 06:51:04;;;;;;;;;;;;;;;;;;5079943;28;20311;-48
2022/05/30 06:53:31;;;;;;;;;;;;;;;;;;5085087;28;20012;-50
2022/05/30 06:55:57;;;;;;;;;;;;;;;;;;5079530;28;19916;-54
2022/05/30 06:58:24;;;;;;;;;;;;;;;;;;5090028;28;19926;-42
2022/05/30 07:00:51;;;;;;;;;;;;;;;;;;5084540;28;19930;-45
2022/05/30 07:03:18;;;;;;;;;;;;;;;;;;5083500;28;19962;-50
2022/05/30 07:05:44;;;;;;;;;;;;;;;;;;5085658;28;19908;-52
2022/05/30 07:08:12;;;;;;;;;;;;;;;;;;5084004;28;19920;-44
2022/05/30 07:10:38;;;;;;;;;;;;;;;;;;5084225;28;19919;-57
2022/05/30 07:13:05;;;;;;;;;;;;;;;;;;5087267;28;19916;-52
2022/05/30 07:15:31;;;;;;;;;;;;;;;;;;5084210;28;19923;-44
2022/05/30 07:17:58;;;;;;;;;;;;;;;;;;5080973;28;19970;-46
2022/05/30 07:20:24;;;;;;;;;;;;;;;;;;5086646;28;19916;-52
2022/05/30 07:22:51;;;;;;;;;;;;;;;;;;5087214;28;19999;-53
2022/05/30 07:25:17;;;;;;;;;;;;;;;;;;5068884;28;20434;-45
2022/05/30 07:27:43;;;;;;;;;;;;;;;;;;5085274;28;20371;-47
2022/05/30 07:30:10;;;;;;;;;;;;;;;;;;5094284;28;19969;-44
2022/05/30 07:32:36;;;;;;;;;;;;;;;;;;5093941;28;19919;-50
2022/05/30 07:35:03;;;;;;;;;;;;;;;;;;5094333;28;19908;-54
2022/05/30 07:37:29;;;;;;;;;;;;;;;;;;5093315;28;20428;-49
2022/05/30 07:39:56;;;;;;;;;;;;;;;;;;5093964;28;19908;-56
2022/05/30 07:42:23;;;;;;;;;;;;;;;;;;5093093;28;20246;-53
2022/05/30 07:44:49;;;;;;;;;;;;;;;;;;5093855;28;19918;-44
2022/05/30 07:47:17;;;;;;;;;;;;;;;;;;5093598;28;19908;-51
2022/05/30 07:49:43;;;;;;;;;;;;;;;;;;5093027;28;19948;-46
2022/05/30 07:52:10;;;;;;;;;;;;;;;;;;5092396;28;19933;-52
2022/05/30 07:54:36;;;;;;;;;;;;;;;;;;5093183;28;19926;-48
2022/05/30 07:57:02;;;;;;;;;;;;;;;;;;5092671;28;19908;-52
2022/05/30 07:59:29;;;;;;;;;;;;;;;;;;5093182;28;19908;-44
2022/05/30 08:01:55;;;;;;;;;;;;;;;;;;5093707;28;19915;-52
2022/05/30 08:04:22;;;;;;;;;;;;;;;;;;5080335;28;20346;-49
2022/05/30 08:06:48;;;;;;;;;;;;;;;;;;5074573;28;20278;-49
2022/05/30 08:09:15;;;;;;;;;;;;;;;;;;5093815;28;19961;-51
2022/05/30 08:11:41;;;;;;;;;;;;;;;;;;5093119;28;19920;-52
2022/05/30 08:14:08;;;;;;;;;;;;;;;;;;5093925;28;19938;-46
2022/05/30 08:16:37;;;;;;;;;;;;;;;;;;5092797;28;20330;-48
2022/05/30 08:19:04;;;;;;;;;;;;;;;;;;5093681;28;19931;-46
2022/05/30 08:21:30;;;;;;;;;;;;;;;;;;5093151;28;19965;-54
2022/05/30 08:23:57;;;;;;;;;;;;;;;;;;5093734;28;19958;-46
2022/05/30 08:26:23;;;;;;;;;;;;;;;;;;5093646;28;19990;-48
2022/05/30 08:28:50;;;;;;;;;;;;;;;;;;5093020;28;20031;-50
2022/05/30 08:31:16;;;;;;;;;;;;;;;;;;5092170;28;19915;-54
2022/05/30 08:33:43;;;;;;;;;;;;;;;;;;5093508;28;19916;-54
2022/05/30 08:36:09;;;;;;;;;;;;;;;;;;5092336;28;19908;-49
2022/05/30 08:38:37;;;;;;;;;;;;;;;;;;5093431;28;19954;-50
2022/05/30 08:43:49;;;;;;;;;;;;;;;;;;5093752;28;19915;-50
2022/05/30 08:46:15;;;;;;;;;;;;;;;;;;5093677;28;19950;-46
2022/05/30 08:48:42;;;;;;;;;;;;;;;;;;5088751;28;20673;-57
2022/05/30 08:51:09;;;;;;;;;;;;;;;;;;5088389;28;19912;-50
2022/05/30 08:53:36;;;;;;;;;;;;;;;;;;5090577;28;19969;-49
2022/05/30 08:56:03;;;;;;;;;;;;;;;;;;5087727;28;19915;-53
2022/05/30 08:58:29;;;;;;;;;;;;;;;;;;5088050;28;20002;-58
2022/05/30 09:00:56;;;;;;;;;;;;;;;;;;5091808;28;19908;-56
2022/05/30 09:03:23;;;;;;;;;;;;;;;;;;5092781;28;20395;-48
2022/05/30 09:05:50;;;;;;;;;;;;;;;;;;5092649;28;19916;-46
2022/05/30 09:08:16;;;;;;;;;;;;;;;;;;5092453;28;19988;-49
2022/05/30 09:10:43;;;;;;;;;;;;;;;;;;5082420;28;20031;-41
2022/05/30 09:13:09;;;;;;;;;;;;;;;;;;5078467;28;20386;-50
2022/05/30 09:15:36;;;;;;;;;;;;;;;;;;5078113;28;20339;-44
2022/05/30 09:18:02;;;;;;;;;;;;;;;;;;5086740;28;20021;-46
2022/05/30 09:20:29;;;;;;;;;;;;;;;;;;5082568;28;19915;-48
2022/05/30 09:22:55;;;;;;;;;;;;;;;;;;5080745;28;19908;-46
2022/05/30 09:28:06;;;;;;;;;;;;;;;;;;5086512;28;19927;-51
2022/05/30 09:30:33;;;;;;;;;;;;;;;;;;5079255;28;19915;-51
2022/05/30 09:32:59;;;;;;;;;;;;;;;;;;5082882;28;19924;-46
2022/05/30 09:35:26;;;;;;;;;;;;;;;;;;5082226;28;19992;-47
2022/05/30 09:37:53;;;;;;;;;;;;;;;;;;5084616;28;19969;-50
2022/05/30 09:40:20;;;;;;;;;;;;;;;;;;5086606;28;19966;-49
2022/05/30 09:42:46;;;;;;;;;;;;;;;;;;5085930;28;20319;-44
2022/05/30 09:45:13;;;;;;;;;;;;;;;;;;5084290;28;20334;-45
2022/05/30 09:47:39;;;;;;;;;;;;;;;;;;5084152;28;19999;-47
2022/05/30 09:50:06;;;;;;;;;;;;;;;;;;5089551;28;19908;-50
2022/05/30 09:52:32;;;;;;;;;;;;;;;;;;5092003;28;20290;-47
2022/05/30 09:54:59;;;;;;;;;;;;;;;;;;5092332;28;19908;-50
2022/05/30 09:57:25;;;;;;;;;;;;;;;;;;5092679;28;20013;-45
2022/05/30 09:59:52;;;;;;;;;;;;;;;;;;5092741;28;19908;-55
2022/05/30 10:02:19;;;;;;;;;;;;;;;;;;5092163;28;19909;-51
2022/05/30 10:04:46;;;;;;;;;;;;;;;;;;5092208;28;19938;-49
2022/05/30 10:07:13;;;;;;;;;;;;;;;;;;5095839;28;19917;-53
2022/05/30 10:09:39;;;;;;;;;;;;;;;;;;5096105;28;19915;-53
2022/05/30 10:12:06;;;;;;;;;;;;;;;;;;5082160;28;19916;-46
2022/05/30 10:14:34;;;;;;;;;;;;;;;;;;5075297;28;19913;-52
2022/05/30 10:17:00;;;;;;;;;;;;;;;;;;5073745;28;19909;-48
2022/05/30 10:19:27;;;;;;;;;;;;;;;;;;5075206;28;19912;-49
2022/05/30 10:30:08;;;;;;;;;;;;;;;;;;5073572;28;20283;-47
2022/05/30 10:32:34;;;;;;;;;;;;;;;;;;5073247;28;19923;-42
2022/05/30 10:35:00;;;;;;;;;;;;;;;;;;5073544;28;19916;-46
2022/05/30 10:37:27;;;;;;;;;;;;;;;;;;5072383;28;19920;-48
2022/05/30 10:39:54;;;;;;;;;;;;;;;;;;5072473;28;19916;-44
2022/05/30 10:42:21;;;;;;;;;;;;;;;;;;5072544;28;19908;-46
2022/05/30 10:44:47;;;;;;;;;;;;;;;;;;5074028;28;19913;-49
2022/05/30 10:47:15;;;;;;;;;;;;;;;;;;5073995;28;19999;-50
2022/05/30 10:49:42;;;;;;;;;;;;;;;;;;5073894;28;20347;-56
2022/05/30 10:52:08;;;;;;;;;;;;;;;;;;5074430;28;19942;-53
2022/05/30 10:54:35;;;;;;;;;;;;;;;;;;5074987;28;19908;-51
2022/05/30 10:57:01;;;;;;;;;;;;;;;;;;5075263;28;19934;-46
2022/05/30 10:59:28;;;;;;;;;;;;;;;;;;5075457;28;19996;-53
2022/05/30 11:01:55;;;;;;;;;;;;;;;;;;5075578;28;19912;-58
2022/05/30 11:04:21;;;;;;;;;;;;;;;;;;5075081;28;19915;-49
2022/05/30 11:06:48;;;;;;;;;;;;;;;;;;5076040;28;19908;-49
2022/05/30 11:09:14;;;;;;;;;;;;;;;;;;5095725;28;19916;-57
2022/05/30 11:11:41;;;;;;;;;;;;;;;;;;5094937;28;19916;-45
2022/05/30 11:14:08;;;;;;;;;;;;;;;;;;5095252;28;19919;-48
2022/05/30 11:16:34;;;;;;;;;;;;;;;;;;5094837;28;19908;-43
2022/05/30 11:19:01;;;;;;;;;;;;;;;;;;5095002;28;20260;-42
2022/05/30 11:21:28;;;;;;;;;;;;;;;;;;5094994;28;19957;-52
2022/05/30 11:23:54;;;;;;;;;;;;;;;;;;5095178;28;19908;-54
2022/05/30 11:26:20;;;;;;;;;;;;;;;;;;5094807;28;20373;-53
2022/05/30 11:28:47;;;;;;;;;;;;;;;;;;5094753;28;20267;-46
2022/05/30 11:31:13;;;;;;;;;;;;;;;;;;5094945;28;20415;-49
2022/05/30 11:33:41;;;;;;;;;;;;;;;;;;5094777;28;19920;-53
2022/05/30 11:36:07;;;;;;;;;;;;;;;;;;5094633;28;19912;-44
2022/05/30 11:38:35;;;;;;;;;;;;;;;;;;5094413;28;19908;-43
2022/05/30 11:41:01;;;;;;;;;;;;;;;;;;5094614;28;19908;-47
2022/05/30 11:43:28;;;;;;;;;;;;;;;;;;5094748;28;19916;-45
2022/05/30 11:45:54;;;;;;;;;;;;;;;;;;5094426;28;19909;-47
2022/05/30 11:48:21;;;;;;;;;;;;;;;;;;5094435;28;19909;-47
2022/05/30 11:50:49;;;;;;;;;;;;;;;;;;5093947;28;20415;-52
2022/05/30 11:53:15;;;;;;;;;;;;;;;;;;5094109;28;20015;-48
2022/05/30 11:55:42;;;;;;;;;;;;;;;;;;5094312;28;19909;-50
2022/05/30 11:58:08;;;;;;;;;;;;;;;;;;5094241;28;19961;-49
2022/05/30 12:00:35;;;;;;;;;;;;;;;;;;5094203;28;19908;-47
2022/05/30 12:03:01;;;;;;;;;;;;;;;;;;5094292;28;19908;-45
2022/05/30 12:05:28;;;;;;;;;;;;;;;;;;5094517;28;19930;-47
2022/05/30 12:07:54;;;;;;;;;;;;;;;;;;5094166;28;19927;-47
2022/05/30 12:10:21;;;;;;;;;;;;;;;;;;5093937;28;19918;-45
2022/05/30 12:12:47;;;;;;;;;;;;;;;;;;5093488;28;19973;-45
2022/05/30 12:15:14;;;;;;;;;;;;;;;;;;5094155;28;19912;-48
2022/05/30 12:23:47;;;;;;;;;;;;;;;;;;5093198;28;20378;-47
2022/05/30 12:25:59;;;;;;;;;;;;;;;;;;5093505;28;19974;-50
2022/05/30 12:28:26;;;;;;;;;;;;;;;;;;5093009;28;19908;-51
2022/05/30 12:30:52;;;;;;;;;;;;;;;;;;5093784;28;19949;-45
2022/05/30 12:33:19;;;;;;;;;;;;;;;;;;5093990;28;19999;-46
2022/05/30 12:35:45;;;;;;;;;;;;;;;;;;5093710;28;19954;-55
2022/05/30 12:38:13;;;;;;;;;;;;;;;;;;5093624;28;20004;-48
2022/05/30 12:40:40;;;;;;;;;;;;;;;;;;5093388;28;20354;-46
2022/05/30 12:43:10;;;;;;;;;;;;;;;;;;5093522;28;20286;-42
2022/05/30 12:45:36;;;;;;;;;;;;;;;;;;5093676;28;19915;-52
2022/05/30 12:48:03;;;;;;;;;;;;;;;;;;5093774;28;19916;-53
2022/05/30 12:50:29;;;;;;;;;;;;;;;;;;5089807;28;19912;-45
2022/05/30 12:52:56;;;;;;;;;;;;;;;;;;5093451;28;19916;-55
2022/05/30 12:55:22;;;;;;;;;;;;;;;;;;5093393;28;19908;-50
2022/05/30 12:57:49;;;;;;;;;;;;;;;;;;5093406;28;19911;-46
2022/05/30 13:00:15;;;;;;;;;;;;;;;;;;5093521;28;20034;-54
2022/05/30 13:02:42;;;;;;;;;;;;;;;;;;5093233;28;20254;-55
2022/05/30 13:05:08;;;;;;;;;;;;;;;;;;5093409;28;19908;-57
2022/05/30 13:07:35;;;;;;;;;;;;;;;;;;5092941;28;19920;-54
2022/05/30 13:10:01;;;;;;;;;;;;;;;;;;5093432;28;19908;-58
2022/05/30 13:12:51;;;;;;;;;;;;;;;;;;5093039;28;19916;-57
2022/05/30 13:15:14;;;;;;;;;;;;;;;;;;5093385;28;20350;-54
2022/05/30 13:17:40;;;;;;;;;;;;;;;;;;5093483;28;20002;-55
2022/05/30 13:20:07;;;;;;;;;;;;;;;;;;5092915;28;19920;-53
2022/05/30 13:22:33;;;;;;;;;;;;;;;;;;5093028;28;19908;-52
2022/05/30 13:25:00;;;;;;;;;;;;;;;;;;5093132;28;19908;-50
2022/05/30 13:27:26;;;;;;;;;;;;;;;;;;5093278;28;19908;-52
2022/05/30 13:29:53;;;;;;;;;;;;;;;;;;5093158;28;19948;-48
2022/05/30 13:32:19;;;;;;;;;;;;;;;;;;5093132;28;19912;-55
2022/05/30 13:34:48;;;;;;;;;;;;;;;;;;5092823;28;19912;-50
2022/05/30 13:37:15;;;;;;;;;;;;;;;;;;5093269;28;19933;-47
2022/05/30 13:39:42;;;;;;;;;;;;;;;;;;5093421;28;19908;-50
2022/05/30 13:42:09;;;;;;;;;;;;;;;;;;5095680;28;19912;-50
2022/05/30 13:44:35;;;;;;;;;;;;;;;;;;5096966;28;20278;-53
2022/05/30 13:47:02;;;;;;;;;;;;;;;;;;5097114;28;20331;-52
2022/05/30 13:49:28;;;;;;;;;;;;;;;;;;5097229;28;19927;-46
2022/05/30 13:51:55;;;;;;;;;;;;;;;;;;5096695;28;19957;-55
2022/05/30 13:54:22;;;;;;;;;;;;;;;;;;5096873;28;19908;-58
2022/05/30 13:56:48;;;;;;;;;;;;;;;;;;5096734;28;19908;-56
2022/05/30 13:59:15;;;;;;;;;;;;;;;;;;5096983;28;19908;-54
2022/05/30 14:01:41;;;;;;;;;;;;;;;;;;5096606;28;19912;-52
2022/05/30 14:04:08;;;;;;;;;;;;;;;;;;5096723;28;19915;-46
2022/05/30 14:06:34;;;;;;;;;;;;;;;;;;5096396;28;19908;-55
2022/05/30 14:09:00;;;;;;;;;;;;;;;;;;5096541;28;19920;-56
2022/05/30 14:11:27;;;;;;;;;;;;;;;;;;5096544;28;19964;-55
2022/05/30 14:13:54;;;;;;;;;;;;;;;;;;5096452;28;20378;-53
2022/05/30 14:16:21;;;;;;;;;;;;;;;;;;5096371;28;19969;-55
2022/05/30 14:18:47;;;;;;;;;;;;;;;;;;5096064;28;20263;-47
2022/05/30 14:21:14;;;;;;;;;;;;;;;;;;5095993;28;19915;-53
2022/05/30 14:23:40;;;;;;;;;;;;;;;;;;5096424;28;19961;-50
2022/05/30 14:26:09;;;;;;;;;;;;;;;;;;5096638;28;19912;-51
2022/05/30 14:28:35;;;;;;;;;;;;;;;;;;5095953;28;19909;-49
2022/05/30 14:31:02;;;;;;;;;;;;;;;;;;5096123;28;19908;-45
2022/05/30 14:33:28;;;;;;;;;;;;;;;;;;5096042;28;19961;-50
2022/05/30 14:35:55;;;;;;;;;;;;;;;;;;5096126;28;19951;-48
2022/05/30 14:38:21;;;;;;;;;;;;;;;;;;5096291;28;19908;-44
2022/05/30 14:40:52;;;;;;;;;;;;;;;;;;5095912;28;20389;-50
2022/05/30 14:43:18;;;;;;;;;;;;;;;;;;5095873;28;19908;-53
2022/05/30 14:45:45;;;;;;;;;;;;;;;;;;5096008;28;19919;-41
2022/05/30 14:48:11;;;;;;;;;;;;;;;;;;5096058;28;19908;-54
2022/05/30 14:50:38;;;;;;;;;;;;;;;;;;5094952;28;19915;-53
2022/05/30 14:53:05;;;;;;;;;;;;;;;;;;5095541;28;19977;-55
2022/05/30 14:55:32;;;;;;;;;;;;;;;;;;5095656;28;19908;-57
2022/05/30 14:57:59;;;;;;;;;;;;;;;;;;5095668;28;20417;-56
2022/05/30 15:00:25;;;;;;;;;;;;;;;;;;5094149;28;20267;-48
2022/05/30 15:05:36;;;;;;;;;;;;;;;;;;5095513;28;20420;-48
2022/05/30 15:08:03;;;;;;;;;;;;;;;;;;5095331;28;20294;-48
2022/05/30 15:10:29;;;;;;;;;;;;;;;;;;5095275;28;20307;-55
2022/05/30 15:12:56;;;;;;;;;;;;;;;;;;5095536;28;19916;-58
2022/05/30 15:15:22;;;;;;;;;;;;;;;;;;5095368;28;19908;-54
2022/05/30 15:17:49;;;;;;;;;;;;;;;;;;5095507;28;20366;-55
2022/05/30 15:20:18;;;;;;;;;;;;;;;;;;5095154;28;19908;-57
2022/05/30 15:22:44;;;;;;;;;;;;;;;;;;5095022;28;19914;-52
2022/05/30 15:25:11;;;;;;;;;;;;;;;;;;5095630;28;19912;-50
2022/05/30 15:27:37;;;;;;;;;;;;;;;;;;5095114;28;20007;-51
2022/05/30 15:30:06;;;;;;;;;;;;;;;;;;5095350;28;19908;-53
2022/05/30 15:32:33;;;;;;;;;;;;;;;;;;5094851;28;20301;-51
2022/05/30 15:34:59;;;;;;;;;;;;;;;;;;5094934;28;19908;-55
2022/05/30 15:37:26;;;;;;;;;;;;;;;;;;5094771;28;19912;-48
2022/05/30 15:39:52;;;;;;;;;;;;;;;;;;5094847;28;19908;-45
2022/05/30 15:42:20;;;;;;;;;;;;;;;;;;5094949;28;19914;-55
2022/05/30 15:44:47;;;;;;;;;;;;;;;;;;5094602;28;19953;-54
2022/05/30 15:47:13;;;;;;;;;;;;;;;;;;5094733;28;19916;-46
2022/05/30 15:49:40;;;;;;;;;;;;;;;;;;5094521;28;19908;-50
2022/05/30 15:52:06;;;;;;;;;;;;;;;;;;5094441;28;20010;-49
2022/05/30 15:57:20;;;;;;;;;;;;;;;;;;5094628;28;19915;-49
2022/05/30 15:59:47;;;;;;;;;;;;;;;;;;5094484;28;19908;-46
2022/05/30 16:02:13;;;;;;;;;;;;;;;;;;5094220;28;19995;-48
2022/05/30 16:04:39;;;;;;;;;;;;;;;;;;5093714;28;19915;-47
2022/05/30 16:07:06;;;;;;;;;;;;;;;;;;5094293;28;19955;-46
2022/05/30 16:09:32;;;;;;;;;;;;;;;;;;5094427;28;20002;-45
2022/05/30 16:11:59;;;;;;;;;;;;;;;;;;5094368;28;19916;-48
2022/05/30 16:14:25;;;;;;;;;;;;;;;;;;5094080;28;19915;-45
2022/05/30 16:16:52;;;;;;;;;;;;;;;;;;5094526;28;19961;-53
2022/05/30 16:19:18;;;;;;;;;;;;;;;;;;5094120;28;19998;-50
2022/05/30 16:21:45;;;;;;;;;;;;;;;;;;5094306;28;19912;-49
2022/05/30 16:24:11;;;;;;;;;;;;;;;;;;5094207;28;19923;-49
2022/05/30 16:26:37;;;;;;;;;;;;;;;;;;5094079;28;19919;-49
2022/05/30 16:29:04;;;;;;;;;;;;;;;;;;5094405;28;19908;-51
2022/05/30 16:31:31;;;;;;;;;;;;;;;;;;5094036;28;19954;-47
2022/05/30 16:33:57;;;;;;;;;;;;;;;;;;5093748;28;19916;-54
2022/05/30 16:36:24;;;;;;;;;;;;;;;;;;5093815;28;19915;-44
2022/05/30 16:38:51;;;;;;;;;;;;;;;;;;5093961;28;19995;-44
2022/05/30 16:41:18;;;;;;;;;;;;;;;;;;5093847;28;19956;-43
2022/05/30 16:43:45;;;;;;;;;;;;;;;;;;5093704;28;20308;-45
2022/05/30 16:46:11;;;;;;;;;;;;;;;;;;5093780;28;20307;-45
2022/05/30 16:48:37;;;;;;;;;;;;;;;;;;5093369;28;19908;-50
2022/05/30 16:51:04;;;;;;;;;;;;;;;;;;5093782;28;19908;-52
2022/05/30 16:53:30;;;;;;;;;;;;;;;;;;5093646;28;19938;-48
2022/05/30 16:55:57;;;;;;;;;;;;;;;;;;5093718;28;19966;-40
2022/05/30 16:58:23;;;;;;;;;;;;;;;;;;5093547;28;19915;-39
2022/05/30 17:00:50;;;;;;;;;;;;;;;;;;5093750;28;19908;-51
2022/05/30 17:03:17;;;;;;;;;;;;;;;;;;5093813;28;19914;-54
2022/05/30 17:05:44;;;;;;;;;;;;;;;;;;5093511;28;19908;-55
2022/05/30 17:08:10;;;;;;;;;;;;;;;;;;5092273;28;19920;-53
2022/05/30 17:10:36;;;;;;;;;;;;;;;;;;5093609;28;20282;-57
2022/05/30 17:13:03;;;;;;;;;;;;;;;;;;5093659;28;20282;-54
2022/05/30 17:15:29;;;;;;;;;;;;;;;;;;5098819;28;19908;-57